createdAt,value
2019-01-12T00:03:26.472Z,100113.67
2019-01-12T00:08:30.518Z,100098.83
2019-01-12T00:13:34.699Z,100124.06
2019-01-12T00:18:38.823Z,100120.83
2019-01-12T00:23:42.970Z,100120.83
2019-01-12T00:28:47.125Z,100120.95
2019-01-12T00:33:51.140Z,100124.06
2019-01-12T00:38:55.151Z,100120.89
2019-01-12T00:43:59.222Z,100120.89
2019-01-12T00:49:03.254Z,100130.93
2019-01-12T00:54:07.457Z,100143.09
2019-01-12T00:59:11.503Z,100143.09
2019-01-12T01:04:15.634Z,100147.18
2019-01-12T01:09:19.682Z,100154.03
2019-01-12T01:14:23.707Z,100154.03
2019-01-12T01:19:27.742Z,100156.41
2019-01-12T01:24:31.964Z,100156.41
2019-01-12T01:29:36.043Z,100150.67
2019-01-12T01:34:40.190Z,100171.71
2019-01-12T01:39:44.344Z,100173.86
2019-01-12T01:44:48.525Z,100178.38
2019-01-12T01:49:52.734Z,100175.73
2019-01-12T01:54:56.794Z,100178.23
2019-01-12T02:00:01.033Z,100158.41
2019-01-12T02:05:06.053Z,100172.30
2019-01-12T02:10:14.189Z,100172.30
2019-01-12T02:15:19.072Z,100178.31
2019-01-12T02:20:23.301Z,100181.66
2019-01-12T02:25:27.385Z,100189.39
2019-01-12T02:30:31.655Z,100185.77
2019-01-12T02:35:35.889Z,100188.14
2019-01-12T02:40:40.114Z,100188.14
2019-01-12T02:45:44.326Z,100189.54
2019-01-12T02:50:48.391Z,100185.59
2019-01-12T02:55:52.480Z,100185.59
2019-01-12T03:00:56.606Z,100181.48
2019-01-12T03:06:00.669Z,100174.94
2019-01-12T03:11:04.885Z,100172.61
2019-01-12T03:16:09.219Z,100164.65
2019-01-12T03:21:13.376Z,100164.65
2019-01-12T03:26:17.618Z,100174.26
2019-01-12T03:31:22.296Z,100178.24
2019-01-12T03:36:26.397Z,100178.24
2019-01-12T03:41:30.538Z,100174.20
2019-01-12T03:46:34.719Z,100151.04
2019-01-12T03:51:39.333Z,100161.12
2019-01-12T03:56:43.448Z,100155.25
2019-01-12T04:01:47.503Z,100155.25
2019-01-12T04:06:51.720Z,100154.22
2019-01-12T04:11:55.809Z,100148.71
2019-01-12T04:16:59.832Z,100130.89
2019-01-12T04:22:04.038Z,100146.06
2019-01-12T04:27:08.278Z,100148.47
2019-01-12T04:32:12.416Z,100151.68
2019-01-12T04:37:16.611Z,100139.72
2019-01-12T04:42:20.723Z,100135.63
2019-01-12T04:47:24.751Z,100133.31
2019-01-12T04:52:28.772Z,100145.05
2019-01-12T04:57:32.908Z,100140.34
2019-01-12T05:02:37.062Z,100142.05
2019-01-12T05:07:41.503Z,100131.59
2019-01-12T05:12:45.651Z,100135.88
2019-01-12T05:17:49.877Z,100129.81
2019-01-12T05:22:54.023Z,100149.34
2019-01-12T05:27:58.041Z,100141.58
2019-01-12T05:33:02.068Z,100155.14
2019-01-12T05:38:06.252Z,100150.84
2019-01-12T05:43:10.402Z,100152.02
2019-01-12T05:48:14.515Z,100152.02
2019-01-12T05:53:18.676Z,100156.95
2019-01-12T05:58:22.719Z,100156.95
2019-01-12T06:03:26.739Z,100155.40
2019-01-12T06:08:30.785Z,100159.27
2019-01-12T06:13:34.906Z,100162.87
2019-01-12T06:18:38.932Z,100166.14
2019-01-12T06:23:43.044Z,100169.37
2019-01-12T06:28:47.095Z,100167.00
2019-01-12T06:33:51.659Z,100170.86
2019-01-12T06:38:55.726Z,100156.84
2019-01-12T06:43:59.768Z,100177.94
2019-01-12T06:49:14.082Z,100171.20
2019-01-12T06:54:18.096Z,100175.33
2019-01-12T06:59:22.185Z,100175.81
2019-01-12T07:04:26.234Z,100175.81
2019-01-12T07:09:30.265Z,100176.16
2019-01-12T07:14:34.296Z,100178.63
2019-01-12T07:19:38.348Z,100179.03
2019-01-12T07:24:42.471Z,100179.45
2019-01-12T07:29:46.582Z,100166.48
2019-01-12T07:34:50.621Z,100181.77
2019-01-12T07:39:54.708Z,100164.42
2019-01-12T07:44:58.757Z,100177.34
2019-01-12T07:50:03.086Z,100172.20
2019-01-12T07:55:08.017Z,100172.20
2019-01-12T08:00:18.016Z,100192.91
2019-01-12T08:05:22.994Z,100186.12
2019-01-12T08:10:27.220Z,100182.10
2019-01-12T08:15:31.349Z,100158.55
2019-01-12T08:20:35.443Z,100167.66
2019-01-12T08:25:39.555Z,100167.66
2019-01-12T08:30:44.771Z,100158.19
2019-01-12T08:35:49.999Z,100161.88
2019-01-12T08:40:54.094Z,100170.20
2019-01-12T08:45:58.169Z,100185.98
2019-01-12T08:51:02.275Z,100159.16
2019-01-12T08:56:06.458Z,100159.16
2019-01-12T09:01:11.885Z,100137.77
2019-01-12T09:06:15.989Z,100134.59
2019-01-12T09:11:20.442Z,100134.40
2019-01-12T09:16:24.547Z,100137.09
2019-01-12T09:21:28.564Z,100130.73
2019-01-12T09:26:32.770Z,100107.50
2019-01-12T09:31:36.967Z,100107.50
2019-01-12T09:36:41.199Z,100107.46
2019-01-12T09:41:45.258Z,100108.00
2019-01-12T09:46:49.450Z,100108.00
2019-01-12T09:51:53.512Z,100097.60
2019-01-12T09:56:57.651Z,100094.81
2019-01-12T10:02:01.778Z,100091.64
2019-01-12T10:07:05.897Z,100091.64
2019-01-12T10:12:10.050Z,100066.80
2019-01-12T10:17:14.210Z,100066.80
2019-01-12T10:22:18.477Z,100047.92
2019-01-12T10:27:22.649Z,100041.38
2019-01-12T10:32:26.699Z,100038.28
2019-01-12T10:37:30.833Z,100031.73
2019-01-12T10:42:34.971Z,100034.59
2019-01-12T10:47:39.207Z,100023.52
2019-01-12T10:52:43.336Z,100023.52
2019-01-12T10:57:47.450Z,100002.04
2019-01-12T11:02:51.644Z,100005.70
2019-01-12T11:07:55.702Z,99975.22
2019-01-12T11:12:59.850Z,99978.70
2019-01-12T11:18:04.431Z,99974.78
2019-01-12T11:23:08.711Z,99974.83
2019-01-12T11:28:12.916Z,99963.80
2019-01-12T11:33:17.025Z,99953.29
2019-01-12T11:38:21.136Z,99924.91
2019-01-12T11:43:25.277Z,99923.77
2019-01-12T11:48:33.372Z,99905.44
2019-01-12T11:53:37.548Z,99893.86
2019-01-12T11:58:42.138Z,99875.98
2019-01-12T12:03:46.426Z,99866.97
2019-01-12T12:08:50.770Z,99861.64
2019-01-12T12:13:54.897Z,99852.31
2019-01-12T12:18:59.678Z,99836.75
2019-01-12T12:24:03.845Z,99836.59
2019-01-12T12:29:08.220Z,99836.59
2019-01-12T12:40:09.152Z,99778.22
2019-01-12T12:45:15.997Z,99778.22
2019-01-12T12:50:20.498Z,99748.73
2019-01-12T12:55:24.987Z,99756.85
2019-01-12T13:00:31.414Z,99756.85
2019-01-12T13:05:36.959Z,99760.22
2019-01-12T13:10:41.265Z,99739.12
2019-01-12T13:15:45.642Z,99744.88
2019-01-12T13:20:50.113Z,99737.51
2019-01-12T13:25:54.382Z,99715.36
2019-01-12T13:30:59.195Z,99717.14
2019-01-12T13:36:04.670Z,99720.16
2019-01-12T13:41:08.750Z,99711.05
2019-01-12T13:46:12.968Z,99711.05
2019-01-12T13:51:17.148Z,99692.50
2019-01-12T13:56:21.335Z,99674.39
2019-01-12T14:01:25.548Z,99666.76
2019-01-12T14:06:29.582Z,99657.42
2019-01-12T14:11:33.986Z,99636.08
2019-01-12T14:16:38.478Z,99644.78
2019-01-12T14:21:43.096Z,99644.17
2019-01-12T14:26:52.821Z,99639.83
2019-01-12T14:31:57.182Z,99645.84
2019-01-12T14:37:01.358Z,99632.73
2019-01-12T14:42:05.645Z,99628.88
2019-01-12T14:47:09.670Z,99617.50
2019-01-12T14:52:13.847Z,99611.02
2019-01-12T14:57:17.957Z,99611.02
2019-01-12T15:02:23.182Z,99586.06
2019-01-12T15:07:27.209Z,99580.42
2019-01-12T15:12:31.300Z,99570.24
2019-01-12T15:17:35.385Z,99565.20
2019-01-12T15:22:39.476Z,99553.38
2019-01-12T15:27:43.661Z,99543.19
2019-01-12T15:32:47.843Z,99540.52
2019-01-12T15:37:52.149Z,99540.52
2019-01-12T15:42:56.175Z,99522.00
2019-01-12T15:48:00.290Z,99522.00
2019-01-12T15:53:04.865Z,99516.12
2019-01-12T15:58:16.007Z,99491.53
2019-01-12T16:03:15.055Z,99495.08
2019-01-12T16:08:19.983Z,99495.66
2019-01-12T16:13:24.218Z,99464.20
2019-01-12T16:18:28.305Z,99465.38
2019-01-12T16:23:32.331Z,99463.20
2019-01-12T16:28:36.504Z,99449.98
2019-01-12T16:33:40.626Z,99446.94
2019-01-12T16:38:44.667Z,99438.24
2019-01-12T16:49:52.315Z,99428.38
2019-01-12T16:54:57.143Z,99419.41
2019-01-12T17:00:01.475Z,99426.97
2019-01-12T17:05:05.835Z,99401.55
2019-01-12T17:10:12.742Z,99396.02
2019-01-12T17:15:18.432Z,99396.02
2019-01-12T17:20:27.469Z,99393.42
2019-01-12T17:25:31.556Z,99390.09
2019-01-12T17:30:35.648Z,99380.66
2019-01-12T17:35:39.752Z,99377.83
2019-01-12T17:40:43.818Z,99372.56
2019-01-12T17:45:47.860Z,99345.26
2019-01-12T17:50:51.906Z,99345.26
2019-01-12T17:55:56.006Z,99351.59
2019-01-12T18:01:00.118Z,99351.59
2019-01-12T18:06:04.390Z,99349.69
2019-01-12T18:11:08.497Z,99327.16
2019-01-12T18:16:12.740Z,99347.02
2019-01-12T18:21:17.356Z,99339.28
2019-01-12T18:26:21.709Z,99335.65
2019-01-12T18:31:26.226Z,99333.61
2019-01-12T18:36:30.448Z,99331.88
2019-01-12T18:41:34.757Z,99345.68
2019-01-12T18:46:39.421Z,99334.74
2019-01-12T18:51:43.694Z,99321.58
2019-01-12T18:56:47.730Z,99328.34
2019-01-12T19:01:51.849Z,99328.34
2019-01-12T19:06:55.977Z,99343.78
2019-01-12T19:12:00.138Z,99350.63
2019-01-12T19:17:04.278Z,99342.02
2019-01-12T19:22:08.646Z,99334.77
2019-01-12T19:27:12.984Z,99339.44
2019-01-12T19:32:17.183Z,99339.44
2019-01-12T19:37:21.377Z,99325.87
2019-01-12T19:42:25.409Z,99327.04
2019-01-12T19:47:29.719Z,99313.70
2019-01-12T19:52:33.782Z,99315.09
2019-01-12T19:57:37.959Z,99295.28
2019-01-12T20:02:42.199Z,99298.33
2019-01-12T20:07:46.401Z,99307.26
2019-01-12T20:12:50.501Z,99304.11
2019-01-12T20:17:54.797Z,99306.91
2019-01-12T20:22:58.895Z,99297.38
2019-01-12T20:28:06.677Z,99297.38
2019-01-12T20:33:28.903Z,99286.56
2019-01-12T20:39:11.109Z,99268.30
2019-01-12T20:44:30.059Z,99277.11
2019-01-12T20:49:42.241Z,99274.24
2019-01-12T20:55:17.790Z,99269.23
2019-01-12T21:00:54.740Z,99268.39
2019-01-12T21:06:13.754Z,99253.95
2019-01-12T21:12:14.047Z,99230.26
2019-01-12T21:17:18.845Z,99221.72
2019-01-12T21:22:22.935Z,99221.72
2019-01-12T21:27:27.141Z,99230.69
2019-01-12T21:32:31.255Z,99227.34
2019-01-12T21:37:35.416Z,99217.13
2019-01-12T21:42:39.543Z,99202.95
2019-01-12T21:47:43.718Z,99227.27
2019-01-12T21:52:47.799Z,99227.27
2019-01-12T21:57:52.173Z,99211.00
2019-01-12T22:02:56.413Z,99201.13
2019-01-12T22:08:00.846Z,99202.70
2019-01-12T22:13:05.216Z,99200.97
2019-01-12T22:18:09.559Z,99199.02
2019-01-12T22:23:14.061Z,99193.30
2019-01-12T22:28:18.530Z,99186.48
2019-01-12T22:33:22.962Z,99188.55
2019-01-12T22:38:27.577Z,99191.22
2019-01-12T22:43:32.320Z,99186.31
2019-01-12T22:48:36.774Z,99188.73
2019-01-12T22:53:41.408Z,99188.73
2019-01-12T22:58:45.590Z,99191.91
2019-01-12T23:03:50.274Z,99183.52
2019-01-12T23:08:54.644Z,99199.84
2019-01-12T23:13:58.853Z,99189.33
2019-01-12T23:19:03.134Z,99189.33
2019-01-12T23:24:07.462Z,99196.06
2019-01-12T23:29:11.673Z,99192.63
2019-01-12T23:34:15.974Z,99178.82
2019-01-12T23:39:20.243Z,99174.78
2019-01-12T23:44:24.634Z,99173.09
2019-01-12T23:49:29.038Z,99169.91
2019-01-12T23:54:33.400Z,99171.25
2019-01-12T23:59:37.609Z,99176.63
